Time;durP1;ratioP1;P1;durP2;ratioP2;P2;SDS_P1;SDS_P2;PMS_P1;PMS_P2;Temp;Humidity;BMP_temperature;BMP_pressure;BME280_temperature;BME280_humidity;BME280_pressure;Samples;Min_cycle;Max_cycle;Signal;HPM_P1;HPM_P2
2022/02/07 00:01:40;;;;;;;4.90;3.30;;;;;;;3.31;100.00;97793.67;1591254;90;25607;-71
2022/02/07 00:04:04;;;;;;;6.62;3.02;;;;;;;3.30;100.00;97790.23;1586774;90;26342;-71
2022/02/07 00:06:30;;;;;;;4.15;3.10;;;;;;;3.29;100.00;97785.98;1586825;90;25607;-71
2022/02/07 00:08:56;;;;;;;3.92;3.08;;;;;;;3.29;100.00;97794.00;1586894;90;27957;-70
2022/02/07 00:11:23;;;;;;;7.15;4.10;;;;;;;3.30;100.00;97778.73;1586825;90;25570;-72
2022/02/07 00:13:49;;;;;;;8.80;3.92;;;;;;;3.30;100.00;97772.86;1586906;90;25614;-72
2022/02/07 00:16:16;;;;;;;4.20;3.08;;;;;;;3.31;100.00;97778.42;1586862;90;25720;-72
2022/02/07 00:18:43;;;;;;;6.45;3.70;;;;;;;3.32;100.00;97772.52;1586900;90;32451;-72
2022/02/07 00:21:10;;;;;;;5.50;3.98;;;;;;;3.33;100.00;97790.90;1586902;90;27335;-72
2022/02/07 00:23:36;;;;;;;5.17;3.52;;;;;;;3.34;100.00;97798.39;1586798;90;25713;-71
2022/02/07 00:26:03;;;;;;;7.12;3.77;;;;;;;3.37;100.00;97785.70;1586891;90;25690;-73
2022/02/07 00:28:29;;;;;;;5.75;3.37;;;;;;;3.38;100.00;97792.62;1586832;90;26249;-73
2022/02/07 00:30:55;;;;;;;6.22;3.27;;;;;;;3.39;100.00;97815.57;1584980;86;25594;-71
2022/02/07 00:33:22;;;;;;;7.53;3.75;;;;;;;3.42;100.00;97808.22;1656039;85;27353;-72
2022/02/07 00:35:48;;;;;;;4.50;3.10;;;;;;;3.43;100.00;97804.45;1651742;86;25755;-72
2022/02/07 00:38:19;;;;;;;4.92;3.25;;;;;;;3.44;100.00;97803.36;1651602;86;26218;-73
2022/02/07 00:45:53;;;;;;;3.92;2.75;;;;;;;3.44;100.00;97806.04;1652236;86;27337;-73
2022/02/07 00:48:16;;;;;;;4.17;3.10;;;;;;;3.47;100.00;97825.41;1651343;86;25566;-72
2022/02/07 00:50:44;;;;;;;3.87;3.10;;;;;;;3.49;100.00;97820.55;1658398;86;25482;-73
2022/02/07 00:53:13;;;;;;;3.65;3.22;;;;;;;3.50;100.00;97818.66;1691721;84;25674;-73
2022/02/07 00:55:40;;;;;;;4.85;2.90;;;;;;;3.51;100.00;97827.69;1691945;84;25619;-73
2022/02/07 00:58:08;;;;;;;5.40;3.27;;;;;;;3.51;100.00;97833.03;1691727;84;27391;-73
2022/02/07 01:00:35;;;;;;;4.03;3.20;;;;;;;3.52;100.00;97831.94;1691683;84;25639;-73
2022/02/07 01:03:02;;;;;;;4.10;3.37;;;;;;;3.52;100.00;97824.45;1691821;84;25679;-73
2022/02/07 01:05:28;;;;;;;5.53;3.30;;;;;;;3.53;100.00;97890.19;1677673;84;27827;-73
2022/02/07 01:07:58;;;;;;;5.33;3.22;;;;;;;3.54;100.00;97848.44;1691768;84;25570;-73
2022/02/07 01:10:39;;;;;;;4.08;3.17;;;;;;;3.55;100.00;97835.28;1691986;84;27312;-73
2022/02/07 01:13:12;;;;;;;4.60;2.85;;;;;;;3.54;100.00;97841.75;1690738;84;25487;-73
2022/02/07 01:21:09;;;;;;;2.45;1.85;;;;;;;3.51;100.00;97858.98;1691776;84;25615;-73
2022/02/07 01:50:47;;;;;;;3.77;2.60;;;;;;;3.20;99.93;97881.95;1665840;85;25917;-72
2022/02/07 01:53:04;;;;;;;2.80;2.60;;;;;;;3.18;99.96;97879.06;1670054;84;25547;-72
2022/02/07 01:57:56;;;;;;;2.90;2.60;;;;;;;3.15;99.94;97884.23;1711493;83;25738;-73
2022/02/07 02:00:23;;;;;;;4.80;2.85;;;;;;;3.17;99.94;97895.41;1711530;83;25655;-73
2022/02/07 02:02:49;;;;;;;3.15;2.85;;;;;;;3.18;99.98;97890.28;1711554;83;27474;-72
2022/02/07 02:05:16;;;;;;;2.80;2.60;;;;;;;3.16;99.86;97897.84;1711455;83;25406;-72
2022/02/07 02:07:44;;;;;;;3.22;2.47;;;;;;;3.17;99.94;97903.42;1711522;83;25639;-72
2022/02/07 02:10:11;;;;;;;4.12;2.67;;;;;;;3.17;99.90;97904.77;1711479;83;25660;-72
2022/02/07 02:13:01;;;;;;;3.75;2.72;;;;;;;3.16;99.97;97910.63;1711531;83;25419;-72
2022/02/07 02:47:39;;;;;;;3.55;2.87;;;;;;;3.13;99.30;97954.56;1599527;89;25522;-71
2022/02/07 02:50:16;;;;;;;3.47;2.85;;;;;;;3.12;99.07;97957.02;1597256;89;26329;-71
2022/02/07 02:52:34;;;;;;;4.80;4.27;;;;;;;3.11;99.20;97956.22;1556700;92;25529;-71
2022/02/07 02:55:00;;;;;;;3.35;2.80;;;;;;;3.13;99.12;97967.92;1556541;92;27370;-71
2022/02/07 02:57:27;;;;;;;3.90;2.92;;;;;;;3.11;98.82;97953.55;1556476;92;25677;-71
2022/02/07 02:59:53;;;;;;;2.90;2.62;;;;;;;3.11;98.85;97952.20;1557429;92;25476;-71
2022/02/07 03:02:20;;;;;;;2.87;2.58;;;;;;;3.10;98.70;97949.32;1593734;89;26385;-71
2022/02/07 03:04:46;;;;;;;3.15;2.85;;;;;;;3.11;98.64;97962.11;1592721;90;25491;-71
2022/02/07 03:07:12;;;;;;;3.27;2.42;;;;;;;3.10;98.61;97962.67;1593561;90;27398;-71
2022/02/07 03:09:46;;;;;;;2.33;2.12;;;;;;;3.09;98.48;97974.45;1593697;90;25330;-71
2022/02/07 03:12:08;;;;;;;3.45;2.72;;;;;;;3.09;98.33;97979.80;1593691;90;25821;-71
2022/02/07 03:14:42;;;;;;;4.45;2.58;;;;;;;3.09;98.32;97982.46;1593435;90;26180;-71
2022/02/07 03:17:03;;;;;;;3.37;2.40;;;;;;;3.10;98.10;97980.56;1652052;84;25753;-71
2022/02/07 03:19:30;;;;;;;2.20;2.00;;;;;;;3.08;97.92;97987.59;1691837;84;27492;-71
2022/02/07 03:21:56;;;;;;;2.17;1.85;;;;;;;3.06;97.77;97986.31;1691784;84;25397;-71
2022/02/07 03:24:23;;;;;;;2.02;1.80;;;;;;;3.04;97.68;97987.97;1691906;84;25550;-71
2022/02/07 03:26:49;;;;;;;1.98;1.85;;;;;;;3.03;97.51;97981.59;1691832;84;26414;-72
2022/02/07 03:29:15;;;;;;;2.77;1.77;;;;;;;3.02;97.45;97989.39;1691903;84;25395;-71
2022/02/07 03:31:43;;;;;;;2.75;1.80;;;;;;;2.98;97.16;97992.69;1691873;84;27387;-71
2022/02/07 03:34:10;;;;;;;1.80;1.70;;;;;;;2.95;97.00;97991.20;1691687;84;25629;-71
2022/02/07 03:36:36;;;;;;;1.70;1.60;;;;;;;2.92;96.98;98005.95;1691782;84;25604;-72
2022/02/07 03:39:05;;;;;;;1.90;1.70;;;;;;;2.91;96.87;98004.93;1691692;84;26148;-72
2022/02/07 03:41:32;;;;;;;2.90;1.52;;;;;;;2.88;96.76;98008.22;1691917;84;25564;-72
2022/02/07 03:43:59;;;;;;;1.77;1.57;;;;;;;2.85;96.63;98010.98;1691849;84;28002;-72
2022/02/07 03:46:25;;;;;;;2.70;1.32;;;;;;;2.82;96.57;98019.61;1691664;84;25565;-72
2022/02/07 03:48:52;;;;;;;2.30;2.10;;;;;;;2.80;96.50;98031.16;1691781;84;25758;-72
2022/02/07 03:51:18;;;;;;;2.20;1.67;;;;;;;2.78;96.49;98036.03;1700132;84;25858;-71
2022/02/07 03:53:45;;;;;;;1.85;1.72;;;;;;;2.78;96.61;98038.70;1704078;84;25383;-71
2022/02/07 03:56:11;;;;;;;3.00;1.80;;;;;;;2.76;96.66;98038.23;1704057;84;28093;-71
2022/02/07 03:58:38;;;;;;;2.10;1.90;;;;;;;2.76;96.70;98036.90;1703941;84;25673;-71
2022/02/07 04:01:06;;;;;;;4.47;2.52;;;;;;;2.77;96.78;98041.13;1704019;84;25598;-72
2022/02/07 04:03:34;;;;;;;4.10;2.80;;;;;;;2.77;96.92;98041.90;1704014;83;26191;-72
2022/02/07 04:06:06;;;;;;;3.50;2.60;;;;;;;2.77;96.93;98056.58;1704042;84;25631;-72
2022/02/07 04:08:35;;;;;;;3.02;2.83;;;;;;;2.74;96.87;98054.56;1703589;84;28409;-72
2022/02/07 04:11:13;;;;;;;4.17;3.42;;;;;;;2.73;96.91;98049.53;1703788;84;25544;-72
2022/02/07 04:13:34;;;;;;;5.10;2.90;;;;;;;2.72;96.83;98058.63;1702727;84;25559;-71
2022/02/07 04:16:02;;;;;;;3.33;3.02;;;;;;;2.71;96.75;98060.52;1704009;83;26144;-72
2022/02/07 04:18:48;;;;;;;5.72;3.70;;;;;;;2.69;96.69;98061.38;1704151;84;25662;-71
2022/02/07 04:20:59;;;;;;;6.37;3.75;;;;;;;2.68;96.70;98069.14;1700127;84;27323;-71
2022/02/07 04:23:25;;;;;;;5.47;3.98;;;;;;;2.67;96.75;98068.11;1703967;84;25714;-71
2022/02/07 04:25:51;;;;;;;5.35;3.40;;;;;;;2.66;96.81;98074.56;1704065;83;25403;-71
2022/02/07 04:28:18;;;;;;;4.65;3.55;;;;;;;2.65;96.86;98070.31;1704025;84;26179;-71
2022/02/07 04:30:45;;;;;;;4.85;3.65;;;;;;;2.65;96.86;98076.98;1704115;84;25528;-71
2022/02/07 04:33:11;;;;;;;5.37;3.60;;;;;;;2.63;96.93;98082.63;1704296;84;27401;-71
2022/02/07 04:35:37;;;;;;;4.30;3.80;;;;;;;2.64;96.97;98081.55;1704009;84;25563;-71
2022/02/07 04:38:07;;;;;;;5.45;4.15;;;;;;;2.65;96.99;98088.44;1704042;83;25447;-71
2022/02/07 04:40:33;;;;;;;3.80;3.33;;;;;;;2.66;96.97;98081.23;1704077;84;31543;-71
2022/02/07 04:42:59;;;;;;;5.95;3.77;;;;;;;2.65;96.91;98087.11;1704057;83;32423;-71
2022/02/07 04:45:39;;;;;;;4.45;3.92;;;;;;;2.65;96.71;98089.00;1704041;83;27319;-71
2022/02/07 04:50:49;;;;;;;3.90;3.35;;;;;;;2.63;96.53;98085.86;1693328;84;25464;-71
2022/02/07 04:53:39;;;;;;;6.30;3.55;;;;;;;2.60;96.44;98080.58;1661286;85;25610;-71
2022/02/07 04:56:17;;;;;;;5.70;3.20;;;;;;;2.58;96.31;98086.78;1660912;85;25387;-70
2022/02/07 04:58:42;;;;;;;4.17;3.35;;;;;;;2.56;96.21;98091.64;1660744;85;27887;-71
2022/02/07 05:03:43;;;;;;;4.03;2.90;;;;;;;2.53;96.04;98092.26;1662770;85;25447;-70
2022/02/07 05:14:18;;;;;;;5.25;2.72;;;;;;;2.41;95.53;98082.17;1662448;86;25531;-71
2022/02/07 05:16:47;;;;;;;3.85;2.55;;;;;;;2.38;95.45;98093.45;1662505;85;25396;-71
2022/02/07 05:19:13;;;;;;;4.10;2.35;;;;;;;2.35;95.33;98103.41;1662460;86;25699;-71
2022/02/07 05:21:40;;;;;;;6.22;2.77;;;;;;;2.33;95.28;98120.27;1662504;86;25612;-72
2022/02/07 05:24:07;;;;;;;3.35;2.35;;;;;;;2.28;95.23;98123.86;1662475;85;28024;-72
2022/02/07 05:26:33;;;;;;;4.25;2.70;;;;;;;2.26;95.26;98138.61;1662359;85;25693;-72
2022/02/07 05:29:02;;;;;;;5.00;2.60;;;;;;;2.20;95.23;98134.73;1662499;85;25453;-72
2022/02/07 05:31:28;;;;;;;4.20;2.70;;;;;;;2.18;95.09;98132.12;1662353;85;25815;-71
2022/02/07 05:33:54;;;;;;;3.80;2.47;;;;;;;2.14;95.13;98125.28;1662493;86;25393;-73
2022/02/07 05:36:20;;;;;;;2.72;2.20;;;;;;;2.12;95.11;98131.47;1662483;85;28106;-72
2022/02/07 05:38:50;;;;;;;2.83;2.40;;;;;;;2.10;95.06;98137.66;1662366;85;25707;-71
2022/02/07 05:41:17;;;;;;;4.33;2.37;;;;;;;2.08;95.00;98139.86;1662464;85;25440;-71
2022/02/07 05:43:48;;;;;;;3.15;2.65;;;;;;;2.04;95.03;98142.34;1662446;85;25608;-71
2022/02/07 05:46:15;;;;;;;4.80;2.40;;;;;;;2.03;95.08;98142.65;1662491;85;25464;-71
2022/02/07 05:48:41;;;;;;;2.98;2.27;;;;;;;1.99;95.10;98142.47;1662479;85;27380;-71
2022/02/07 05:51:07;;;;;;;4.00;2.25;;;;;;;2.00;95.23;98148.58;1673946;84;25543;-71
2022/02/07 05:53:34;;;;;;;5.50;2.60;;;;;;;1.99;95.32;98155.00;1684720;84;25600;-71
2022/02/07 05:56:01;;;;;;;2.42;2.22;;;;;;;1.98;95.40;98159.55;1698806;83;26437;-72
2022/02/07 05:58:28;;;;;;;3.60;2.10;;;;;;;1.98;95.52;98160.88;1698878;83;25637;-71
2022/02/07 06:00:55;;;;;;;4.50;2.65;;;;;;;1.98;95.57;98167.55;1698796;83;27315;-71
2022/02/07 06:03:22;;;;;;;3.90;2.37;;;;;;;1.99;95.70;98177.14;1698781;84;25626;-71
2022/02/07 06:05:51;;;;;;;4.83;2.65;;;;;;;2.01;95.82;98174.14;1698899;83;25451;-71
2022/02/07 06:08:18;;;;;;;;;;;;;;;2.01;95.79;98174.14;1701347;83;25663;-71
2022/02/07 06:10:46;;;;;;;5.12;2.87;;;;;;;2.03;95.86;98184.76;1698888;84;25657;-71
2022/02/07 06:13:20;;;;;;;3.80;2.83;;;;;;;2.04;95.97;98184.20;1698763;84;27316;-71
2022/02/07 06:15:44;;;;;;;8.33;3.55;;;;;;;2.04;96.02;98179.68;1696802;84;25409;-72
2022/02/07 06:18:13;;;;;;;4.17;2.77;;;;;;;2.08;96.08;98177.19;1698861;83;25610;-71
2022/02/07 06:20:39;;;;;;;3.33;2.83;;;;;;;2.11;96.04;98184.59;1698728;83;25684;-72
2022/02/07 06:23:05;;;;;;;4.83;3.12;;;;;;;2.13;96.08;98189.07;1698861;84;25459;-72
2022/02/07 06:25:32;;;;;;;5.42;3.58;;;;;;;2.14;96.01;98188.52;1698867;84;27327;-72
2022/02/07 06:27:58;;;;;;;6.00;3.60;;;;;;;2.16;96.05;98189.80;1698676;84;25864;-72
2022/02/07 06:30:24;;;;;;;5.25;3.33;;;;;;;2.16;95.99;98188.47;1698806;84;25570;-72
2022/02/07 06:32:51;;;;;;;5.37;3.72;;;;;;;2.18;96.01;98193.47;1698787;84;25629;-72
2022/02/07 06:35:17;;;;;;;7.53;3.70;;;;;;;2.18;96.02;98192.13;1698866;84;25634;-72
2022/02/07 06:37:44;;;;;;;7.78;4.08;;;;;;;2.20;96.06;98197.98;1699044;84;27320;-72
2022/02/07 06:40:11;;;;;;;9.88;4.05;;;;;;;2.22;96.12;98203.23;1698918;84;25689;-71
2022/02/07 06:42:37;;;;;;;11.65;4.50;;;;;;;2.24;96.03;98206.94;1698984;84;25648;-71
2022/02/07 06:45:05;;;;;;;9.08;4.25;;;;;;;2.23;96.08;98204.82;1698857;83;25745;-72
2022/02/07 06:47:33;;;;;;;5.67;4.17;;;;;;;2.26;96.20;98210.63;1699085;83;25732;-72
2022/02/07 06:50:00;;;;;;;6.53;4.65;;;;;;;2.28;96.33;98211.89;1698908;84;27490;-71
2022/02/07 06:52:26;;;;;;;6.22;4.30;;;;;;;2.31;96.40;98219.29;1698764;84;25480;-72
2022/02/07 06:54:53;;;;;;;9.18;4.58;;;;;;;2.34;96.47;98227.25;1698917;84;25484;-72
2022/02/07 06:57:21;;;;;;;7.80;3.52;;;;;;;2.35;96.57;98226.14;1698925;84;26159;-71
2022/02/07 06:59:48;;;;;;;6.85;3.62;;;;;;;2.37;96.62;98230.64;1698944;84;25412;-71
2022/02/07 07:02:15;;;;;;;17.62;7.67;;;;;;;2.38;96.59;98230.87;1698929;84;27930;-72
2022/02/07 07:04:42;;;;;;;9.53;5.55;;;;;;;2.40;96.61;98236.69;1698830;84;25475;-72
2022/02/07 07:07:09;;;;;;;12.50;5.95;;;;;;;2.43;96.74;98241.41;1699169;83;25211;-71
2022/02/07 07:09:37;;;;;;;7.75;4.15;;;;;;;2.45;96.77;98251.78;1685062;84;26780;-72
2022/02/07 07:12:07;;;;;;;7.28;3.58;;;;;;;2.47;96.79;98253.59;1699104;84;25583;-71
2022/02/07 07:14:47;;;;;;;6.97;3.62;;;;;;;2.50;96.86;98268.45;1699126;84;28115;-72
2022/02/07 07:17:10;;;;;;;5.28;3.58;;;;;;;2.50;96.71;98271.13;1698471;83;25377;-72
2022/02/07 07:19:37;;;;;;;5.12;3.33;;;;;;;2.50;96.47;98279.13;1699256;84;25625;-73
2022/02/07 07:22:05;;;;;;;5.58;4.05;;;;;;;2.48;96.13;98277.87;1698767;84;26247;-72
2022/02/07 07:24:33;;;;;;;7.05;3.83;;;;;;;2.42;95.53;98286.00;1698839;83;25392;-72
2022/02/07 07:27:00;;;;;;;6.22;4.12;;;;;;;2.30;94.48;98287.09;1698946;83;27331;-72
2022/02/07 07:29:34;;;;;;;6.97;4.83;;;;;;;2.20;94.38;98290.00;1698748;84;25413;-72
2022/02/07 07:32:05;;;;;;;6.05;4.35;;;;;;;2.12;94.40;98290.72;1698598;83;25662;-73
2022/02/07 07:34:31;;;;;;;7.12;4.47;;;;;;;2.07;94.49;98288.17;1698771;83;26256;-73
2022/02/07 07:36:58;;;;;;;6.87;4.25;;;;;;;2.01;94.44;98290.14;1699411;83;25392;-72
2022/02/07 07:39:25;;;;;;;8.58;5.17;;;;;;;1.96;94.67;98294.25;1699196;84;27990;-71
2022/02/07 07:41:52;;;;;;;10.35;5.53;;;;;;;1.93;94.73;98306.88;1698648;84;25669;-71
2022/02/07 07:44:25;;;;;;;7.62;5.33;;;;;;;1.89;94.71;98307.22;1698801;84;25385;-71
2022/02/07 07:46:53;;;;;;;10.18;5.58;;;;;;;1.84;94.70;98312.91;1698406;83;25607;-72
2022/02/07 07:49:18;;;;;;;9.40;6.55;;;;;;;1.81;94.74;98308.73;1698499;83;25451;-72
2022/02/07 07:51:49;;;;;;;7.35;5.80;;;;;;;1.79;95.09;98324.23;1688953;84;28055;-72
2022/02/07 07:54:22;;;;;;;9.90;6.10;;;;;;;1.78;95.01;98324.77;1667282;86;25547;-72
2022/02/07 08:02:21;;;;;;;8.15;6.00;;;;;;;1.70;95.05;98344.67;1667618;86;25579;-72
2022/02/07 08:04:47;;;;;;;10.48;6.35;;;;;;;1.69;95.23;98346.55;1662657;85;27987;-72
2022/02/07 08:07:19;;;;;;;11.08;6.87;;;;;;;1.67;95.07;98344.73;1661505;86;25758;-71
2022/02/07 08:10:01;;;;;;;11.63;8.50;;;;;;;1.67;95.16;98350.06;1664042;86;25709;-71
2022/02/07 08:12:14;;;;;;;8.63;6.67;;;;;;;1.66;95.42;98359.92;1659382;86;26150;-72
2022/02/07 08:14:41;;;;;;;9.93;7.08;;;;;;;1.65;95.13;98354.88;1689015;84;25464;-70
2022/02/07 08:17:09;;;;;;;8.58;7.20;;;;;;;1.62;95.10;98362.94;1698703;83;27326;-71
2022/02/07 08:19:38;;;;;;;10.65;7.40;;;;;;;1.59;94.96;98380.84;1700730;83;25711;-73
2022/02/07 08:22:05;;;;;;;8.15;6.05;;;;;;;1.57;94.92;98388.91;1688021;83;25433;-72
2022/02/07 08:24:31;;;;;;;9.35;6.85;;;;;;;1.52;94.71;98389.00;1678237;85;25668;-71
2022/02/07 08:26:58;;;;;;;10.15;6.58;;;;;;;1.46;94.67;98395.77;1714551;83;25721;-71
2022/02/07 08:29:25;;;;;;;11.43;7.15;;;;;;;1.43;94.75;98398.20;1677961;85;27451;-72
2022/02/07 08:31:51;;;;;;;10.65;7.10;;;;;;;1.44;95.11;98402.45;1714829;83;25752;-71
2022/02/07 08:34:17;;;;;;;15.98;9.08;;;;;;;1.41;95.28;98403.82;1712502;83;25726;-71
2022/02/07 08:36:44;;;;;;;12.33;8.70;;;;;;;1.45;95.45;98412.05;1709690;83;26358;-71
2022/02/07 08:39:11;;;;;;;12.47;8.45;;;;;;;1.42;95.14;98411.30;1714793;83;25732;-72
2022/02/07 08:41:39;;;;;;;13.15;8.80;;;;;;;1.39;95.07;98417.20;1677709;85;27323;-72
2022/02/07 08:44:06;;;;;;;15.72;9.38;;;;;;;1.35;95.10;98420.22;1678442;85;25519;-71
2022/02/07 08:46:34;;;;;;;19.42;11.35;;;;;;;1.38;95.55;98426.27;1653633;85;25515;-71
2022/02/07 08:49:02;;;;;;;28.57;14.58;;;;;;;1.40;95.78;98428.12;1715510;83;25581;-71
2022/02/07 08:51:32;;;;;;;38.53;15.18;;;;;;;1.40;95.88;98436.11;1716249;83;25602;-70
2022/02/07 08:54:05;;;;;;;68.12;22.22;;;;;;;1.39;95.63;98439.84;1725991;82;26860;-72
2022/02/07 08:56:48;;;;;;;36.30;15.72;;;;;;;1.39;95.73;98439.30;1725743;81;25744;-73
2022/02/07 08:58:59;;;;;;;24.72;12.28;;;;;;;1.40;95.80;98451.55;1723095;82;25624;-72
2022/02/07 09:01:39;;;;;;;24.32;12.28;;;;;;;1.39;95.70;98455.83;1725703;83;25669;-72
2022/02/07 09:06:54;;;;;;;16.32;10.10;;;;;;;1.42;95.91;98469.91;1712943;83;27990;-73
2022/02/07 09:09:18;;;;;;;21.90;10.65;;;;;;;1.42;96.04;98472.02;1705204;83;25500;-71
2022/02/07 09:11:38;;;;;;;16.35;11.28;;;;;;;1.37;95.32;98479.31;1706500;83;25770;-71
2022/02/07 09:14:10;;;;;;;18.10;11.85;;;;;;;1.36;95.51;98484.38;1719864;81;25690;-71
2022/02/07 09:16:33;;;;;;;20.00;11.75;;;;;;;1.35;95.75;98490.27;1699733;83;25499;-72
2022/02/07 09:19:01;;;;;;;29.90;14.33;;;;;;;1.35;95.71;98488.93;1726338;83;27398;-71
2022/02/07 09:21:29;;;;;;;27.13;15.23;;;;;;;1.34;95.80;98497.99;1725601;83;25718;-72
2022/02/07 09:23:59;;;;;;;21.87;13.18;;;;;;;1.36;95.95;98506.48;1680268;83;25701;-71
2022/02/07 09:26:25;;;;;;;;;;;;;;;1.37;96.00;98512.07;1698412;83;25724;-72
2022/02/07 09:28:52;;;;;;;21.52;11.85;;;;;;;1.37;95.86;98517.95;1717897;83;25479;-72
2022/02/07 09:31:18;;;;;;;19.40;11.80;;;;;;;1.34;95.74;98519.30;1709809;83;27324;-72
2022/02/07 09:33:45;;;;;;;19.00;10.88;;;;;;;1.34;95.90;98529.96;1726647;83;25703;-71
2022/02/07 09:36:15;;;;;;;18.27;10.50;;;;;;;1.30;95.78;98528.42;1700539;83;25769;-71
2022/02/07 09:38:43;;;;;;;;;;;;;;;1.32;96.13;98534.80;1717484;83;26314;-71
2022/02/07 09:41:11;;;;;;;16.75;10.40;;;;;;;1.35;96.34;98536.10;1713906;83;25839;-72
2022/02/07 09:43:45;;;;;;;26.37;13.60;;;;;;;1.32;96.14;98538.79;1714006;83;27365;-72
2022/02/07 09:46:18;;;;;;;20.32;11.68;;;;;;;1.35;96.49;98533.44;1640896;86;25529;-72
2022/02/07 09:48:43;;;;;;;17.48;10.03;;;;;;;1.38;96.60;98544.81;1618642;87;34770;-71
2022/02/07 09:51:11;;;;;;;18.57;12.00;;;;;;;1.42;96.90;98549.84;1645800;86;25752;-72
2022/02/07 09:53:40;;;;;;;16.30;9.90;;;;;;;1.45;96.77;98553.26;1656402;86;25482;-70
2022/02/07 09:56:10;;;;;;;17.32;9.25;;;;;;;1.43;96.68;98560.73;1642383;86;27509;-73
2022/02/07 09:58:39;;;;;;;19.27;11.28;;;;;;;1.45;96.71;98566.03;1639627;87;25537;-72
2022/02/07 10:01:16;;;;;;;20.80;13.05;;;;;;;1.45;96.59;98566.58;1645168;86;25682;-73
2022/02/07 10:03:52;;;;;;;27.50;18.82;;;;;;;1.44;96.55;98583.09;1644739;86;26300;-72
2022/02/07 10:06:43;;;;;;;30.57;20.17;;;;;;;1.46;96.87;98583.61;1652424;86;25618;-72
2022/02/07 10:09:00;;;;;;;17.23;11.65;;;;;;;1.50;97.20;98583.82;1637454;86;27330;-72
2022/02/07 10:13:56;;;;;;;12.68;9.40;;;;;;;1.51;96.91;98587.27;1649972;86;25639;-72
2022/02/07 10:19:01;;;;;;;15.58;10.65;;;;;;;1.54;96.96;98596.02;1652695;86;25655;-72
2022/02/07 10:40:31;;;;;;;55.13;27.10;;;;;;;1.69;97.25;98603.77;1653411;86;25689;-71
2022/02/07 10:46:15;;;;;;;52.23;24.60;;;;;;;1.75;97.68;98601.26;1668804;86;25605;-72
2022/02/07 10:48:54;;;;;;;25.12;14.23;;;;;;;1.79;97.73;98608.94;1668367;84;27387;-72
2022/02/07 10:51:36;;;;;;;17.15;10.45;;;;;;;1.83;97.86;98617.92;1668492;86;25663;-72
2022/02/07 10:54:12;;;;;;;17.57;10.48;;;;;;;1.84;97.50;98624.06;1662257;84;25724;-72
2022/02/07 10:56:45;;;;;;;14.33;9.28;;;;;;;1.88;97.77;98630.39;1663529;86;25648;-72
2022/02/07 10:59:17;;;;;;;12.25;8.00;;;;;;;1.90;97.82;98635.44;1639123;86;25647;-73
2022/02/07 11:04:26;;;;;;;12.25;8.58;;;;;;;1.90;97.37;98644.21;1662252;86;25742;-72
2022/02/07 11:06:56;;;;;;;12.73;8.03;;;;;;;1.88;97.22;98650.94;1663605;85;25254;-72
2022/02/07 11:09:26;;;;;;;13.28;8.28;;;;;;;1.84;97.15;98650.18;1663456;85;26252;-71
2022/02/07 11:17:22;;;;;;;13.50;8.25;;;;;;;1.75;96.59;98675.90;1688941;84;25614;-70
2022/02/07 11:27:51;;;;;;;9.80;6.72;;;;;;;1.57;96.19;98719.38;1676264;84;28065;-70
2022/02/07 11:30:39;;;;;;;7.62;5.60;;;;;;;1.49;96.02;98728.23;1695839;84;25782;-70
2022/02/07 11:33:08;;;;;;;7.92;5.58;;;;;;;1.43;96.04;98729.92;1692184;83;26235;-70
2022/02/07 11:35:50;;;;;;;8.33;5.15;;;;;;;1.35;95.84;98748.68;1663690;85;25690;-71
2022/02/07 11:38:20;;;;;;;9.05;6.40;;;;;;;1.28;95.74;98747.70;1636634;87;25752;-71
2022/02/07 11:40:58;;;;;;;;;;;;;;;1.23;95.92;98757.08;1616243;88;27990;-72
2022/02/07 11:43:30;;;;;;;11.05;6.97;;;;;;;1.19;96.08;98764.06;1635882;87;25811;-72
2022/02/07 11:46:08;;;;;;;23.87;10.13;;;;;;;1.15;96.16;98773.68;1641956;86;25649;-71
2022/02/07 11:48:43;;;;;;;25.25;10.90;;;;;;;1.11;96.06;98780.66;1633390;87;25801;-71
2022/02/07 11:51:18;;;;;;;27.75;13.13;;;;;;;1.06;96.18;98796.70;1641561;86;25780;-72
2022/02/07 11:53:51;;;;;;;13.22;8.00;;;;;;;1.05;96.42;98797.21;1642459;86;27281;-71
2022/02/07 11:56:29;;;;;;;15.90;8.90;;;;;;;1.03;96.47;98806.02;1632315;87;25729;-72
2022/02/07 11:59:18;;;;;;;13.88;8.60;;;;;;;0.98;96.31;98811.41;1642100;86;25664;-71
2022/02/07 12:02:05;;;;;;;15.75;9.95;;;;;;;0.97;96.59;98816.49;1643013;86;26187;-72
2022/02/07 12:04:43;;;;;;;24.95;18.17;;;;;;;0.97;96.80;98830.32;1635940;87;25794;-72
2022/02/07 12:07:18;;;;;;;44.63;27.37;;;;;;;0.96;96.95;98838.06;1618895;87;27970;-72
2022/02/07 12:12:44;;;;;;;22.45;15.18;;;;;;;0.93;97.00;98858.83;1637305;86;25816;-72
2022/02/07 12:15:22;;;;;;;23.65;15.68;;;;;;;0.95;97.22;98852.45;1648604;87;25730;-70
2022/02/07 12:17:56;;;;;;;23.12;13.72;;;;;;;0.97;97.37;98866.27;1634038;86;25633;-71
2022/02/07 12:20:27;;;;;;;24.92;16.35;;;;;;;0.99;97.74;98869.44;1641018;86;27897;-71
2022/02/07 12:23:10;;;;;;;23.70;15.68;;;;;;;1.05;98.00;98873.66;1628041;86;25767;-70
2022/02/07 12:25:47;;;;;;;26.00;15.93;;;;;;;1.11;98.39;98876.54;1613046;87;25719;-70
2022/02/07 12:28:44;;;;;;;23.98;16.62;;;;;;;1.18;98.39;98888.20;1657828;85;25669;-71
2022/02/07 12:31:08;;;;;;;24.32;14.58;;;;;;;1.23;98.59;98885.48;1626384;87;25701;-71
2022/02/07 12:33:32;;;;;;;22.07;14.50;;;;;;;1.27;98.57;98889.16;1642234;87;27428;-71
2022/02/07 12:36:00;;;;;;;24.47;14.93;;;;;;;1.35;98.83;98894.43;1637082;87;35025;-71
2022/02/07 12:38:33;;;;;;;20.92;14.50;;;;;;;1.40;98.83;98891.71;1641138;86;25574;-71
2022/02/07 12:40:59;;;;;;;19.52;13.43;;;;;;;1.47;98.90;98898.83;1630769;86;26253;-70
2022/02/07 12:43:26;;;;;;;23.38;13.75;;;;;;;1.54;99.00;98905.95;1640744;86;25752;-70
2022/02/07 12:45:53;;;;;;;20.72;13.32;;;;;;;1.60;99.01;98907.48;1627986;87;27340;-70
2022/02/07 12:48:28;;;;;;;22.10;13.98;;;;;;;1.66;99.11;98917.00;1628509;86;25413;-70
2022/02/07 12:50:52;;;;;;;22.42;13.15;;;;;;;1.75;99.47;98926.50;1626623;87;25707;-70
2022/02/07 12:53:22;;;;;;;24.20;13.35;;;;;;;1.84;99.45;98930.70;1634205;85;25644;-71
2022/02/07 12:55:55;;;;;;;22.40;13.98;;;;;;;1.96;99.54;98934.27;1632385;87;25724;-71
2022/02/07 12:58:28;;;;;;;22.62;14.00;;;;;;;2.04;99.78;98943.79;1664801;85;26895;-71
2022/02/07 13:00:55;;;;;;;21.65;14.05;;;;;;;2.15;99.89;98947.66;1665988;84;25494;-72
2022/02/07 13:03:21;;;;;;;18.23;12.90;;;;;;;2.27;100.00;98948.04;1665119;85;25779;-71
2022/02/07 13:05:49;;;;;;;20.08;12.30;;;;;;;2.32;99.67;98951.97;1665072;85;25675;-71
2022/02/07 13:08:18;;;;;;;22.70;12.47;;;;;;;2.35;98.96;98963.94;1702088;83;25721;-70
2022/02/07 13:10:55;;;;;;;19.25;12.13;;;;;;;2.36;98.75;98964.20;1701700;84;29788;-70
2022/02/07 13:13:38;;;;;;;19.07;12.58;;;;;;;2.37;98.72;98973.26;1701640;83;25635;-71
2022/02/07 13:15:57;;;;;;;16.90;11.63;;;;;;;2.41;98.66;98970.25;1700557;82;25589;-70
2022/02/07 13:18:27;;;;;;;16.95;11.88;;;;;;;2.41;98.26;98980.93;1702755;82;25861;-70
2022/02/07 13:20:52;;;;;;;21.65;11.63;;;;;;;2.42;98.21;98985.20;1713776;82;25759;-70
2022/02/07 13:23:20;;;;;;;22.62;13.10;;;;;;;2.43;98.30;98990.80;1727833;82;27352;-70
2022/02/07 13:25:52;;;;;;;19.30;12.43;;;;;;;2.47;98.14;98991.02;1724243;82;25787;-71
2022/02/07 13:28:31;;;;;;;26.12;14.58;;;;;;;2.53;98.57;98999.20;1726166;82;25690;-70
2022/02/07 13:31:00;;;;;;;23.85;12.75;;;;;;;2.62;98.86;98999.34;1729187;82;25567;-71
2022/02/07 13:33:29;;;;;;;20.80;11.97;;;;;;;2.71;98.98;99008.88;1722993;82;25416;-71
2022/02/07 13:35:56;;;;;;;23.65;13.68;;;;;;;2.73;98.40;99018.17;1708087;83;27399;-71
2022/02/07 13:38:25;;;;;;;29.27;16.42;;;;;;;2.75;98.48;99008.53;1724822;82;25746;-71
2022/02/07 13:41:00;;;;;;;33.10;16.93;;;;;;;2.76;98.09;99018.94;1724666;81;25597;-71
2022/02/07 13:43:33;;;;;;;38.00;20.08;;;;;;;2.76;97.88;99016.81;1729956;82;25685;-71
2022/02/07 13:46:03;;;;;;;43.52;22.37;;;;;;;2.75;97.50;99029.90;1725659;82;25613;-71
2022/02/07 13:48:32;;;;;;;44.27;21.68;;;;;;;2.73;97.11;99026.18;1725795;82;27418;-71
2022/02/07 13:51:01;;;;;;;26.75;13.08;;;;;;;2.71;97.06;99034.23;1729556;82;25257;-71
2022/02/07 13:53:29;;;;;;;32.98;16.95;;;;;;;2.69;96.96;99039.86;1715012;81;25615;-71
2022/02/07 13:56:00;;;;;;;44.15;21.77;;;;;;;2.68;96.87;99041.48;1692682;84;25680;-71
2022/02/07 13:58:39;;;;;;;33.35;17.25;;;;;;;2.65;96.52;99051.39;1694326;84;25442;-71
2022/02/07 14:01:15;;;;;;;40.70;21.02;;;;;;;2.61;96.49;99055.97;1702677;84;27947;-70
2022/02/07 14:03:54;;;;;;;40.67;20.80;;;;;;;2.59;96.42;99064.80;1690618;84;25706;-71
2022/02/07 14:06:20;;;;;;;22.82;12.37;;;;;;;2.56;96.40;99067.25;1694763;84;25505;-70